createdAt,value
2018-02-20T00:00:29.102Z,101150.38
2018-02-20T00:02:56.494Z,101156.16
2018-02-20T00:05:23.886Z,101156.17
2018-02-20T00:07:51.279Z,101160.53
2018-02-20T00:10:18.718Z,101162.31
2018-02-20T00:12:46.117Z,101164.52
2018-02-20T00:15:13.623Z,101164.97
2018-02-20T00:17:41.029Z,101162.77
2018-02-20T00:20:08.415Z,101161.02
2018-02-20T00:22:35.912Z,101169.12
2018-02-20T00:25:03.346Z,101158.91
2018-02-20T00:27:30.802Z,101161.06
2018-02-20T00:29:58.216Z,101166.23
2018-02-20T00:32:25.607Z,101159.37
2018-02-20T00:34:53.039Z,101154.98
2018-02-20T00:37:20.518Z,101156.58
2018-02-20T00:39:47.919Z,101160.23
2018-02-20T00:42:15.371Z,101152.64
2018-02-20T00:44:42.763Z,101159.95
2018-02-20T00:47:10.259Z,101157.23
2018-02-20T00:49:37.650Z,101156.47
2018-02-20T00:52:05.047Z,101158.17
2018-02-20T00:54:32.498Z,101158.54
2018-02-20T00:56:59.892Z,101158.04
2018-02-20T00:59:27.312Z,101164.53
2018-02-20T01:01:54.791Z,101168.38
2018-02-20T01:04:22.201Z,101161.17
2018-02-20T01:06:49.621Z,101163.00
2018-02-20T01:09:17.040Z,101162.99
2018-02-20T01:11:44.435Z,101164.30
2018-02-20T01:14:11.843Z,101161.81
2018-02-20T01:16:39.247Z,101164.81
2018-02-20T01:19:07.031Z,101163.07
2018-02-20T01:21:34.419Z,101163.07
2018-02-20T01:24:01.882Z,101161.90
2018-02-20T01:26:29.340Z,101157.73
2018-02-20T01:28:56.794Z,101157.72
2018-02-20T01:31:24.209Z,101152.63
2018-02-20T01:33:51.603Z,101151.63
2018-02-20T01:36:19.012Z,101155.90
2018-02-20T01:38:46.520Z,101152.82
2018-02-20T01:41:13.911Z,101153.98
2018-02-20T01:43:41.319Z,101157.77
2018-02-20T01:46:08.795Z,101155.57
2018-02-20T01:48:36.219Z,101164.50
2018-02-20T01:51:08.561Z,101163.45
2018-02-20T01:53:36.050Z,101160.98
2018-02-20T01:56:03.537Z,101164.52
2018-02-20T01:58:30.943Z,101171.95
2018-02-20T02:00:58.434Z,101168.41
2018-02-20T02:03:25.951Z,101166.61
2018-02-20T02:05:53.343Z,101172.61
2018-02-20T02:08:20.739Z,101168.26
2018-02-20T02:10:48.127Z,101164.78
2018-02-20T02:13:15.524Z,101169.53
2018-02-20T02:15:43.167Z,101161.72
2018-02-20T02:18:10.571Z,101161.27
2018-02-20T02:20:37.971Z,101164.36
2018-02-20T02:23:05.454Z,101164.23
2018-02-20T02:25:32.851Z,101162.07
2018-02-20T02:28:00.238Z,101159.14
2018-02-20T02:30:27.709Z,101165.35
2018-02-20T02:32:55.101Z,101173.55
2018-02-20T02:35:22.518Z,101166.54
2018-02-20T02:37:49.915Z,101170.67
2018-02-20T02:40:17.331Z,101174.22
2018-02-20T02:42:44.718Z,101166.97
2018-02-20T02:45:12.131Z,101171.53
2018-02-20T02:47:39.523Z,101163.28
2018-02-20T02:50:06.937Z,101163.23
2018-02-20T02:52:34.319Z,101155.42
2018-02-20T02:55:01.759Z,101161.41
2018-02-20T02:57:29.304Z,101159.16
2018-02-20T02:59:56.794Z,101162.16
2018-02-20T03:02:24.216Z,101163.33
2018-02-20T03:04:51.678Z,101157.83
2018-02-20T03:07:19.131Z,101157.38
2018-02-20T03:09:46.555Z,101157.27
2018-02-20T03:12:14.054Z,101159.80
2018-02-20T03:14:41.455Z,101159.88
2018-02-20T03:17:08.919Z,101156.66
2018-02-20T03:22:03.033Z,101157.84
2018-02-20T03:24:30.423Z,101160.94
2018-02-20T03:26:57.818Z,101166.75
2018-02-20T03:29:25.215Z,101164.56
2018-02-20T03:31:52.622Z,101157.80
2018-02-20T03:34:20.033Z,101160.42
2018-02-20T03:36:47.406Z,101163.92
2018-02-20T03:39:14.827Z,101162.69
2018-02-20T03:41:42.286Z,101163.27
2018-02-20T03:44:09.686Z,101162.70
2018-02-20T03:46:37.088Z,101169.94
2018-02-20T03:49:04.487Z,101169.09
2018-02-20T03:51:32.004Z,101174.70
2018-02-20T03:53:59.398Z,101176.16
2018-02-20T03:56:26.815Z,101165.61
2018-02-20T03:58:54.223Z,101169.58
2018-02-20T04:01:21.623Z,101168.69
2018-02-20T04:03:49.095Z,101162.69
2018-02-20T04:06:16.490Z,101166.54
2018-02-20T04:08:43.885Z,101168.69
2018-02-20T04:11:11.334Z,101163.16
2018-02-20T04:13:38.716Z,101168.52
2018-02-20T04:16:06.119Z,101168.05
2018-02-20T04:18:33.511Z,101172.56
2018-02-20T04:21:00.922Z,101165.62
2018-02-20T04:23:28.321Z,101167.34
2018-02-20T04:25:55.770Z,101165.14
2018-02-20T04:28:23.226Z,101168.14
2018-02-20T04:30:50.627Z,101165.48
2018-02-20T04:33:18.031Z,101156.08
2018-02-20T04:35:45.430Z,101168.84
2018-02-20T04:38:12.831Z,101170.27
2018-02-20T04:40:40.237Z,101170.32
2018-02-20T04:43:07.634Z,101166.84
2018-02-20T04:45:35.094Z,101169.41
2018-02-20T04:48:03.390Z,101167.54
2018-02-20T04:50:30.847Z,101172.71
2018-02-20T04:52:58.256Z,101166.84
2018-02-20T04:55:25.671Z,101174.92
2018-02-20T04:57:53.062Z,101171.20
2018-02-20T05:00:20.468Z,101173.41
2018-02-20T05:02:47.923Z,101176.97
2018-02-20T05:05:15.328Z,101180.48
2018-02-20T05:07:42.727Z,101182.51
2018-02-20T05:10:10.135Z,101188.84
2018-02-20T05:12:37.546Z,101184.83
2018-02-20T05:15:04.952Z,101181.69
2018-02-20T05:17:32.355Z,101185.09
2018-02-20T05:19:59.811Z,101184.20
2018-02-20T05:22:27.259Z,101186.31
2018-02-20T05:24:54.663Z,101190.30
2018-02-20T05:27:22.060Z,101183.44
2018-02-20T05:29:49.460Z,101189.84
2018-02-20T05:32:16.886Z,101192.84
2018-02-20T05:34:44.358Z,101189.33
2018-02-20T05:37:11.779Z,101190.63
2018-02-20T05:39:39.179Z,101198.47
2018-02-20T05:42:06.579Z,101196.70
2018-02-20T05:44:34.023Z,101195.33
2018-02-20T05:47:01.434Z,101201.38
2018-02-20T05:49:28.834Z,101196.30
2018-02-20T05:51:56.230Z,101192.88
2018-02-20T05:54:23.626Z,101199.71
2018-02-20T05:56:51.018Z,101201.42
2018-02-20T05:59:18.417Z,101202.29
2018-02-20T06:01:45.823Z,101198.84
2018-02-20T06:04:13.218Z,101202.33
2018-02-20T06:06:40.619Z,101201.55
2018-02-20T06:09:08.022Z,101202.80
2018-02-20T06:11:35.426Z,101205.11
2018-02-20T06:14:02.821Z,101206.84
2018-02-20T06:16:30.238Z,101212.52
2018-02-20T06:18:57.630Z,101218.20
2018-02-20T06:21:25.042Z,101221.27
2018-02-20T06:23:52.509Z,101221.27
2018-02-20T06:26:19.912Z,101222.29
2018-02-20T06:28:47.312Z,101226.05
2018-02-20T06:31:14.716Z,101221.31
2018-02-20T06:33:42.223Z,101219.16
2018-02-20T06:36:09.627Z,101228.77
2018-02-20T06:38:37.144Z,101229.62
2018-02-20T06:41:04.545Z,101230.43
2018-02-20T06:43:31.926Z,101224.34
2018-02-20T06:45:59.335Z,101229.22
2018-02-20T06:48:26.739Z,101232.63
2018-02-20T06:50:54.139Z,101235.78
2018-02-20T06:53:21.540Z,101238.27
2018-02-20T06:55:48.939Z,101238.14
2018-02-20T06:58:16.339Z,101237.56
2018-02-20T07:00:43.741Z,101233.08
2018-02-20T07:03:11.142Z,101230.95
2018-02-20T07:05:38.538Z,101229.16
2018-02-20T07:08:05.934Z,101227.20
2018-02-20T07:10:33.330Z,101228.67
2018-02-20T07:13:00.727Z,101237.36
2018-02-20T07:15:28.125Z,101229.75
2018-02-20T07:17:55.515Z,101229.18
2018-02-20T07:20:22.922Z,101234.88
2018-02-20T07:22:50.315Z,101235.90
2018-02-20T07:25:17.771Z,101235.91
2018-02-20T07:27:45.163Z,101233.55
2018-02-20T07:30:13.507Z,101234.42
2018-02-20T07:32:40.963Z,101238.50
2018-02-20T07:35:08.355Z,101246.55
2018-02-20T07:37:35.746Z,101242.47
2018-02-20T07:40:03.150Z,101241.58
2018-02-20T07:42:30.569Z,101240.97
2018-02-20T07:44:57.951Z,101244.45
2018-02-20T07:47:25.350Z,101250.08
2018-02-20T07:49:52.748Z,101244.73
2018-02-20T07:52:20.143Z,101245.09
2018-02-20T07:54:47.548Z,101254.27
2018-02-20T07:57:14.943Z,101249.16
2018-02-20T07:59:42.344Z,101251.75
2018-02-20T08:02:09.746Z,101253.44
2018-02-20T08:04:37.138Z,101241.89
2018-02-20T08:07:04.539Z,101250.30
2018-02-20T08:09:31.937Z,101254.06
2018-02-20T08:11:59.335Z,101254.23
2018-02-20T08:14:26.737Z,101260.47
2018-02-20T08:16:54.140Z,101250.73
2018-02-20T08:19:21.531Z,101250.30
2018-02-20T08:21:48.934Z,101254.51
2018-02-20T08:24:16.339Z,101244.72
2018-02-20T08:26:43.738Z,101246.33
2018-02-20T08:29:11.131Z,101251.88
2018-02-20T08:31:38.547Z,101246.25
2018-02-20T08:34:05.943Z,101246.02
2018-02-20T08:36:33.437Z,101245.81
2018-02-20T08:39:00.831Z,101243.30
2018-02-20T08:41:28.234Z,101248.02
2018-02-20T08:43:55.734Z,101244.64
2018-02-20T08:46:23.196Z,101251.82
2018-02-20T08:48:50.594Z,101250.48
2018-02-20T08:51:18.110Z,101250.92
2018-02-20T08:53:45.503Z,101253.22
2018-02-20T08:56:12.914Z,101247.91
2018-02-20T08:58:40.369Z,101248.84
2018-02-20T09:01:07.774Z,101252.44
2018-02-20T09:03:35.175Z,101247.66
2018-02-20T09:06:02.574Z,101241.90
2018-02-20T09:08:29.971Z,101242.74
2018-02-20T09:10:57.379Z,101247.41
2018-02-20T09:13:24.812Z,101244.42
2018-02-20T09:15:52.238Z,101250.75
2018-02-20T09:18:19.635Z,101243.20
2018-02-20T09:20:47.043Z,101246.67
2018-02-20T09:23:14.446Z,101252.06
2018-02-20T09:25:41.867Z,101248.82
2018-02-20T09:28:09.259Z,101248.31
2018-02-20T09:30:36.698Z,101249.82
2018-02-20T09:33:04.521Z,101243.55
2018-02-20T09:35:31.914Z,101245.41
2018-02-20T09:37:59.348Z,101239.66
2018-02-20T09:40:26.721Z,101242.79
2018-02-20T09:42:54.169Z,101239.55
2018-02-20T09:45:21.578Z,101246.05
2018-02-20T09:47:48.994Z,101242.19
2018-02-20T09:50:16.395Z,101243.27
2018-02-20T09:52:43.807Z,101247.47
2018-02-20T09:55:11.205Z,101245.73
2018-02-20T09:57:38.718Z,101241.42
2018-02-20T10:00:06.111Z,101245.20
2018-02-20T10:02:33.514Z,101251.63
2018-02-20T10:05:00.911Z,101243.37
2018-02-20T10:07:28.324Z,101240.77
2018-02-20T10:09:55.726Z,101253.01
2018-02-20T10:12:23.128Z,101243.48
2018-02-20T10:14:50.518Z,101252.40
2018-02-20T10:17:17.914Z,101251.77
2018-02-20T10:19:45.307Z,101252.13
2018-02-20T10:22:12.705Z,101254.90
2018-02-20T10:24:40.099Z,101252.37
2018-02-20T10:27:07.499Z,101253.28
2018-02-20T10:29:35.286Z,101256.30
2018-02-20T10:32:02.699Z,101253.45
2018-02-20T10:34:30.096Z,101251.35
2018-02-20T10:36:57.498Z,101255.15
2018-02-20T10:39:24.885Z,101255.72
2018-02-20T10:41:52.283Z,101253.97
2018-02-20T10:44:19.679Z,101257.56
2018-02-20T10:46:47.075Z,101251.21
2018-02-20T10:49:14.469Z,101250.55
2018-02-20T10:51:41.879Z,101252.27
2018-02-20T10:54:09.307Z,101256.06
2018-02-20T10:56:36.718Z,101262.80
2018-02-20T10:59:04.110Z,101270.68
2018-02-20T11:01:31.519Z,101267.22
2018-02-20T11:03:59.907Z,101272.03
2018-02-20T11:06:27.323Z,101266.17
2018-02-20T11:08:54.720Z,101265.31
2018-02-20T11:11:22.126Z,101267.52
2018-02-20T11:13:49.543Z,101260.61
2018-02-20T11:16:16.946Z,101271.00
2018-02-20T11:18:44.340Z,101268.13
2018-02-20T11:21:11.738Z,101267.48
2018-02-20T11:23:39.198Z,101264.88
2018-02-20T11:26:06.650Z,101264.44
2018-02-20T11:28:34.059Z,101267.20
2018-02-20T11:31:01.460Z,101263.84
2018-02-20T11:33:28.922Z,101261.20
2018-02-20T11:35:56.323Z,101258.88
2018-02-20T11:38:23.715Z,101255.98
2018-02-20T11:40:51.106Z,101259.92
2018-02-20T11:43:19.379Z,101259.03
2018-02-20T11:45:46.777Z,101259.84
2018-02-20T11:48:14.176Z,101258.10
2018-02-20T11:50:41.707Z,101262.88
2018-02-20T11:53:09.199Z,101245.59
2018-02-20T11:55:36.598Z,101259.03
2018-02-20T11:58:04.014Z,101259.43
2018-02-20T12:00:31.408Z,101260.31
2018-02-20T12:02:58.807Z,101248.34
2018-02-20T12:05:26.220Z,101244.09
2018-02-20T12:07:53.667Z,101252.77
2018-02-20T12:10:21.011Z,101250.40
2018-02-20T12:12:48.412Z,101248.83
2018-02-20T12:15:15.805Z,101247.89
2018-02-20T12:17:43.251Z,101258.11
2018-02-20T12:20:10.647Z,101255.02
2018-02-20T12:22:38.042Z,101258.10
2018-02-20T12:25:05.437Z,101258.25
2018-02-20T12:27:32.834Z,101264.63
2018-02-20T12:30:00.231Z,101262.44
2018-02-20T12:32:27.634Z,101267.35
2018-02-20T12:34:55.035Z,101269.83
2018-02-20T12:37:22.435Z,101268.12
2018-02-20T12:39:49.851Z,101269.60
2018-02-20T12:42:17.303Z,101260.83
2018-02-20T12:44:44.721Z,101256.14
2018-02-20T12:47:12.223Z,101262.44
2018-02-20T12:49:39.618Z,101260.15
2018-02-20T12:52:07.024Z,101257.81
2018-02-20T12:54:34.515Z,101252.63
2018-02-20T12:57:01.907Z,101260.33
2018-02-20T12:59:29.304Z,101257.03
2018-02-20T13:01:56.721Z,101250.30
2018-02-20T13:04:24.111Z,101244.40
2018-02-20T13:06:51.504Z,101248.75
2018-02-20T13:09:18.974Z,101247.80
2018-02-20T13:11:46.403Z,101256.21
2018-02-20T13:14:13.843Z,101260.19
2018-02-20T13:16:41.230Z,101265.47
2018-02-20T13:19:08.639Z,101266.76
2018-02-20T13:21:36.033Z,101271.59
2018-02-20T13:24:03.453Z,101268.84
2018-02-20T13:26:30.868Z,101271.54
2018-02-20T13:28:58.263Z,101270.28
2018-02-20T13:31:25.682Z,101271.78
2018-02-20T13:33:53.176Z,101272.05
2018-02-20T13:36:20.558Z,101274.26
2018-02-20T13:38:47.969Z,101267.24
2018-02-20T13:41:15.371Z,101270.12
2018-02-20T13:43:42.767Z,101270.20
2018-02-20T13:46:10.150Z,101263.30
2018-02-20T13:48:37.556Z,101263.66
2018-02-20T13:51:05.027Z,101268.22
2018-02-20T13:56:06.232Z,101271.88
2018-02-20T13:58:33.639Z,101271.58
2018-02-20T14:01:01.034Z,101272.89
2018-02-20T14:03:28.518Z,101268.55
2018-02-20T14:05:55.907Z,101271.28
2018-02-20T14:08:23.353Z,101277.30
2018-02-20T14:10:50.742Z,101273.08
2018-02-20T14:13:18.143Z,101275.81
2018-02-20T14:15:45.539Z,101275.38
2018-02-20T14:18:13.010Z,101284.36
2018-02-20T14:20:40.419Z,101281.45
2018-02-20T14:23:07.823Z,101277.63
2018-02-20T14:25:35.211Z,101280.34
2018-02-20T14:28:02.616Z,101273.36
2018-02-20T14:30:30.034Z,101283.51
2018-02-20T14:32:57.442Z,101280.35
2018-02-20T14:35:24.834Z,101273.94
2018-02-20T14:37:52.239Z,101280.75
2018-02-20T14:40:19.638Z,101287.90
2018-02-20T14:42:47.066Z,101287.16
2018-02-20T14:45:14.475Z,101289.39
2018-02-20T14:47:41.875Z,101287.08
2018-02-20T14:50:09.262Z,101284.92
2018-02-20T14:52:36.687Z,101278.97
2018-02-20T14:55:04.071Z,101286.38
2018-02-20T14:57:31.506Z,101279.98
2018-02-20T14:59:58.946Z,101276.77
2018-02-20T15:02:26.347Z,101277.30
2018-02-20T15:04:53.738Z,101280.18
2018-02-20T15:07:21.126Z,101283.69
2018-02-20T15:09:48.550Z,101283.16
2018-02-20T15:12:15.938Z,101285.05
2018-02-20T15:14:43.335Z,101283.82
2018-02-20T15:17:10.815Z,101285.48
2018-02-20T15:19:38.212Z,101282.77
2018-02-20T15:22:05.598Z,101290.17
2018-02-20T15:24:32.996Z,101296.71
2018-02-20T15:27:00.387Z,101289.48
2018-02-20T15:29:27.788Z,101292.16
2018-02-20T15:31:55.174Z,101292.41
2018-02-20T15:34:22.588Z,101298.27
2018-02-20T15:36:49.973Z,101298.95
2018-02-20T15:39:17.424Z,101300.59
2018-02-20T15:41:44.806Z,101300.72
2018-02-20T15:44:12.237Z,101305.30
2018-02-20T15:46:39.686Z,101313.64
2018-02-20T15:49:07.158Z,101313.83
2018-02-20T15:51:34.555Z,101313.98
2018-02-20T15:54:01.954Z,101313.73
2018-02-20T15:56:29.347Z,101318.76
2018-02-20T15:58:56.742Z,101317.75
2018-02-20T16:01:24.241Z,101319.95
2018-02-20T16:03:51.631Z,101324.39
2018-02-20T16:06:19.020Z,101320.42
2018-02-20T16:08:46.414Z,101323.78
2018-02-20T16:11:13.798Z,101327.97
2018-02-20T16:13:41.194Z,101330.95
2018-02-20T16:16:24.242Z,101330.54
2018-02-20T16:18:51.643Z,101335.77
2018-02-20T16:21:19.035Z,101341.27
2018-02-20T16:23:46.503Z,101342.16
2018-02-20T16:26:13.895Z,101342.73
2018-02-20T16:28:41.310Z,101343.09
2018-02-20T16:31:08.754Z,101346.14
2018-02-20T16:33:36.218Z,101344.77
2018-02-20T16:36:03.627Z,101345.34
2018-02-20T16:38:31.006Z,101354.02
2018-02-20T16:40:58.427Z,101356.06
2018-02-20T16:43:25.835Z,101362.18
2018-02-20T16:45:53.223Z,101362.80
2018-02-20T16:48:20.647Z,101367.27
2018-02-20T16:50:48.031Z,101360.53
2018-02-20T16:53:15.426Z,101368.57
2018-02-20T16:55:42.911Z,101362.58
2018-02-20T16:58:10.314Z,101370.69
2018-02-20T17:00:37.698Z,101373.52
2018-02-20T17:03:05.095Z,101380.92
2018-02-20T17:05:32.478Z,101386.64
2018-02-20T17:07:59.917Z,101393.70
2018-02-20T17:10:27.282Z,101394.77
2018-02-20T17:12:54.670Z,101392.90
2018-02-20T17:15:22.072Z,101397.98
2018-02-20T17:17:49.458Z,101401.36
2018-02-20T17:20:16.850Z,101406.66
2018-02-20T17:22:44.321Z,101408.99
2018-02-20T17:25:11.720Z,101404.92
2018-02-20T17:27:39.103Z,101413.28
2018-02-20T17:30:06.586Z,101415.50
2018-02-20T17:32:33.975Z,101413.12
2018-02-20T17:35:01.374Z,101419.78
2018-02-20T17:37:28.857Z,101414.11
2018-02-20T17:39:56.266Z,101414.83
2018-02-20T17:42:23.703Z,101418.30
2018-02-20T17:44:51.121Z,101416.02
2018-02-20T17:47:18.513Z,101420.59
2018-02-20T17:49:45.916Z,101426.92
2018-02-20T17:52:13.302Z,101428.50
2018-02-20T17:54:40.698Z,101433.27
2018-02-20T17:57:08.095Z,101434.78
2018-02-20T17:59:35.494Z,101441.73
2018-02-20T18:02:02.879Z,101445.91
2018-02-20T18:04:30.279Z,101455.22
2018-02-20T18:06:57.680Z,101456.41
2018-02-20T18:09:25.071Z,101458.48
2018-02-20T18:11:52.474Z,101463.25
2018-02-20T18:14:19.868Z,101460.69
2018-02-20T18:16:47.335Z,101455.14
2018-02-20T18:19:14.798Z,101465.24
2018-02-20T18:21:42.193Z,101475.73
2018-02-20T18:24:09.586Z,101479.45
2018-02-20T18:26:36.991Z,101482.11
2018-02-20T18:29:04.382Z,101486.81
2018-02-20T18:31:31.790Z,101495.56
2018-02-20T18:33:59.178Z,101500.87
2018-02-20T18:36:26.579Z,101497.91
2018-02-20T18:38:54.003Z,101503.58
2018-02-20T18:41:21.403Z,101513.37
2018-02-20T18:43:48.798Z,101513.84
2018-02-20T18:46:16.202Z,101506.19
2018-02-20T18:48:43.629Z,101511.86
2018-02-20T18:51:11.006Z,101522.81
2018-02-20T18:53:38.407Z,101513.95
2018-02-20T18:56:05.790Z,101520.80
2018-02-20T18:58:33.190Z,101519.55
2018-02-20T19:01:00.639Z,101531.86
2018-02-20T19:03:28.037Z,101533.70
2018-02-20T19:05:55.430Z,101534.86
2018-02-20T19:08:22.902Z,101534.56
2018-02-20T19:10:50.326Z,101536.05
2018-02-20T19:13:17.716Z,101541.20
2018-02-20T19:15:45.106Z,101541.44
2018-02-20T19:18:12.509Z,101540.22
2018-02-20T19:20:39.946Z,101548.05
2018-02-20T19:23:07.340Z,101546.04
2018-02-20T19:25:34.730Z,101547.76
2018-02-20T19:28:02.122Z,101551.02
2018-02-20T19:30:29.517Z,101553.30
2018-02-20T19:32:56.962Z,101551.42
2018-02-20T19:35:24.346Z,101550.70
2018-02-20T19:37:51.748Z,101559.98
2018-02-20T19:40:19.142Z,101558.19
2018-02-20T19:42:46.546Z,101554.83
2018-02-20T19:45:13.938Z,101555.08
2018-02-20T19:47:41.326Z,101558.02
2018-02-20T19:50:08.734Z,101561.57
2018-02-20T19:52:36.119Z,101556.40
2018-02-20T19:55:03.514Z,101565.56
2018-02-20T19:57:30.905Z,101568.08
2018-02-20T19:59:58.314Z,101561.63
2018-02-20T20:02:25.706Z,101563.91
2018-02-20T20:04:53.107Z,101558.55
2018-02-20T20:07:20.501Z,101559.55
2018-02-20T20:09:47.900Z,101564.82
2018-02-20T20:12:15.293Z,101572.73
2018-02-20T20:14:42.690Z,101572.47
2018-02-20T20:17:10.101Z,101573.05
2018-02-20T20:19:37.487Z,101575.17
2018-02-20T20:22:04.885Z,101576.55
2018-02-20T20:24:32.320Z,101577.82
2018-02-20T20:26:59.705Z,101581.67
2018-02-20T20:29:27.099Z,101582.66
2018-02-20T20:31:54.491Z,101590.38
2018-02-20T20:34:21.887Z,101591.73
2018-02-20T20:36:49.278Z,101590.52
2018-02-20T20:39:16.675Z,101593.70
2018-02-20T20:41:44.114Z,101592.31
2018-02-20T20:44:11.524Z,101598.75
2018-02-20T20:46:38.991Z,101600.62
2018-02-20T20:49:06.462Z,101603.31
2018-02-20T20:51:33.871Z,101600.29
2018-02-20T20:54:01.258Z,101605.09
2018-02-20T20:56:28.654Z,101607.68
2018-02-20T20:58:56.046Z,101608.14
2018-02-20T21:01:23.461Z,101606.02
2018-02-20T21:03:50.863Z,101606.55
2018-02-20T21:06:18.251Z,101604.36
2018-02-20T21:08:45.643Z,101604.28
2018-02-20T21:11:13.121Z,101606.04
2018-02-20T21:13:40.514Z,101612.13
2018-02-20T21:16:07.918Z,101611.27
2018-02-20T21:18:35.303Z,101619.96
2018-02-20T21:21:02.710Z,101622.61
2018-02-20T21:23:30.101Z,101618.23
2018-02-20T21:25:57.494Z,101616.95
2018-02-20T21:28:24.909Z,101617.42
2018-02-20T21:30:52.302Z,101616.08
2018-02-20T21:33:19.694Z,101616.00
2018-02-20T21:35:47.094Z,101618.17
2018-02-20T21:38:14.484Z,101627.34
2018-02-20T21:40:41.889Z,101633.39
2018-02-20T21:43:09.274Z,101636.84
2018-02-20T21:45:36.671Z,101633.81
2018-02-20T21:48:04.063Z,101637.27
2018-02-20T21:50:31.503Z,101642.11
2018-02-20T21:52:58.899Z,101642.53
2018-02-20T21:55:26.307Z,101644.23
2018-02-20T21:57:53.698Z,101645.52
2018-02-20T22:00:21.095Z,101643.86
2018-02-20T22:02:48.495Z,101649.45
2018-02-20T22:05:15.927Z,101653.84
2018-02-20T22:07:43.312Z,101657.32
2018-02-20T22:10:10.701Z,101659.05
2018-02-20T22:12:38.103Z,101668.59
2018-02-20T22:15:05.506Z,101665.95
2018-02-20T22:17:32.902Z,101668.57
2018-02-20T22:20:00.315Z,101675.94
2018-02-20T22:22:27.703Z,101672.50
2018-02-20T22:24:55.158Z,101677.25
2018-02-20T22:27:22.624Z,101676.84
2018-02-20T22:29:50.082Z,101676.39
2018-02-20T22:32:17.494Z,101678.94
2018-02-20T22:34:44.910Z,101676.34
2018-02-20T22:37:12.299Z,101676.81
2018-02-20T22:39:39.732Z,101686.34
2018-02-20T22:42:07.127Z,101685.48
2018-02-20T22:44:34.539Z,101688.93
2018-02-20T22:47:01.994Z,101693.70
2018-02-20T22:49:29.375Z,101698.45
2018-02-20T22:51:56.846Z,101698.45
2018-02-20T22:54:24.295Z,101706.28
2018-02-20T22:56:51.722Z,101711.91
2018-02-20T22:59:19.123Z,101715.34
2018-02-20T23:01:46.523Z,101725.73
2018-02-20T23:04:13.948Z,101727.04
2018-02-20T23:06:41.355Z,101726.20
2018-02-20T23:09:08.743Z,101727.48
2018-02-20T23:11:43.838Z,101725.34
2018-02-20T23:14:11.230Z,101724.44
2018-02-20T23:16:38.630Z,101723.58
2018-02-20T23:19:06.029Z,101723.58
2018-02-20T23:21:33.428Z,101724.90
2018-02-20T23:24:00.835Z,101720.14
2018-02-20T23:26:28.242Z,101723.58
2018-02-20T23:28:55.634Z,101724.45
2018-02-20T23:31:23.048Z,101721.86
2018-02-20T23:33:50.438Z,101724.02
2018-02-20T23:36:17.851Z,101722.74
2018-02-20T23:38:45.269Z,101720.12
2018-02-20T23:41:12.673Z,101726.19
2018-02-20T23:43:40.066Z,101736.14
2018-02-20T23:46:07.514Z,101735.27
2018-02-20T23:48:34.915Z,101732.25
2018-02-20T23:51:07.818Z,101734.81
2018-02-20T23:53:35.235Z,101732.67
2018-02-20T23:56:02.647Z,101738.75
2018-02-20T23:58:30.027Z,101738.73
